sensor_id;sensor_type;location;lat;lon;timestamp;pressure;altitude;pressure_sealevel;temperature;humidity
19783;BME280;10051;40.294;-3.754;2024-01-30T00:02:18;95461.66;;;9.70;100.00
19783;BME280;10051;40.294;-3.754;2024-01-30T00:04:44;95439.56;;;9.48;100.00
19783;BME280;10051;40.294;-3.754;2024-01-30T00:07:09;95442.88;;;9.44;100.00
19783;BME280;10051;40.294;-3.754;2024-01-30T00:09:35;95434.28;;;9.31;100.00
19783;BME280;10051;40.294;-3.754;2024-01-30T00:12:00;95399.53;;;9.07;100.00
19783;BME280;10051;40.294;-3.754;2024-01-30T00:14:26;95467.72;;;9.53;100.00
19783;BME280;10051;40.294;-3.754;2024-01-30T00:16:52;95401.13;;;9.08;100.00
19783;BME280;10051;40.294;-3.754;2024-01-30T00:19:17;95370.91;;;8.88;100.00
19783;BME280;10051;40.294;-3.754;2024-01-30T00:21:43;95455.72;;;9.40;100.00
19783;BME280;10051;40.294;-3.754;2024-01-30T00:24:09;95453.94;;;9.46;100.00
19783;BME280;10051;40.294;-3.754;2024-01-30T00:26:34;95400.97;;;8.98;100.00
19783;BME280;10051;40.294;-3.754;2024-01-30T00:29:00;95411.47;;;8.98;100.00
19783;BME280;10051;40.294;-3.754;2024-01-30T00:31:26;95417.69;;;9.08;100.00
19783;BME280;10051;40.294;-3.754;2024-01-30T00:33:51;95413.53;;;9.13;100.00
19783;BME280;10051;40.294;-3.754;2024-01-30T00:36:17;95417.28;;;9.17;100.00
19783;BME280;10051;40.294;-3.754;2024-01-30T00:38:43;95430.16;;;9.18;100.00
19783;BME280;10051;40.294;-3.754;2024-01-30T00:41:09;95350.47;;;8.56;100.00
19783;BME280;10051;40.294;-3.754;2024-01-30T00:43:35;95427.22;;;9.15;100.00
19783;BME280;10051;40.294;-3.754;2024-01-30T00:46:00;95464.69;;;9.44;100.00
19783;BME280;10051;40.294;-3.754;2024-01-30T00:48:26;95437.38;;;9.28;100.00
19783;BME280;10051;40.294;-3.754;2024-01-30T00:50:52;95462.47;;;9.53;100.00
19783;BME280;10051;40.294;-3.754;2024-01-30T00:53:17;95425.94;;;9.34;100.00
19783;BME280;10051;40.294;-3.754;2024-01-30T00:55:43;95444.72;;;9.43;100.00
19783;BME280;10051;40.294;-3.754;2024-01-30T00:58:08;95425.47;;;9.20;100.00
19783;BME280;10051;40.294;-3.754;2024-01-30T01:00:34;95388.63;;;8.81;100.00
19783;BME280;10051;40.294;-3.754;2024-01-30T01:03:00;95418.44;;;8.92;100.00
19783;BME280;10051;40.294;-3.754;2024-01-30T01:05:25;95384.97;;;8.82;100.00
19783;BME280;10051;40.294;-3.754;2024-01-30T01:07:51;95375.34;;;8.71;100.00
19783;BME280;10051;40.294;-3.754;2024-01-30T01:10:17;95441.50;;;9.07;100.00
19783;BME280;10051;40.294;-3.754;2024-01-30T01:12:43;95430.63;;;9.15;100.00
19783;BME280;10051;40.294;-3.754;2024-01-30T01:15:09;95426.28;;;9.04;100.00
19783;BME280;10051;40.294;-3.754;2024-01-30T01:17:36;95388.34;;;8.66;100.00
19783;BME280;10051;40.294;-3.754;2024-01-30T01:20:02;95432.69;;;8.96;100.00
19783;BME280;10051;40.294;-3.754;2024-01-30T01:22:28;95348.41;;;8.46;100.00
19783;BME280;10051;40.294;-3.754;2024-01-30T01:24:54;95401.44;;;8.77;100.00
19783;BME280;10051;40.294;-3.754;2024-01-30T01:27:20;95424.50;;;8.92;100.00
19783;BME280;10051;40.294;-3.754;2024-01-30T01:29:46;95332.66;;;8.29;100.00
19783;BME280;10051;40.294;-3.754;2024-01-30T01:32:11;95441.50;;;9.07;100.00
19783;BME280;10051;40.294;-3.754;2024-01-30T01:34:37;95311.91;;;8.11;100.00
19783;BME280;10051;40.294;-3.754;2024-01-30T01:37:03;95389.78;;;8.56;100.00
19783;BME280;10051;40.294;-3.754;2024-01-30T01:39:28;95441.19;;;8.86;100.00
19783;BME280;10051;40.294;-3.754;2024-01-30T01:41:54;95438.56;;;8.86;100.00
19783;BME280;10051;40.294;-3.754;2024-01-30T01:44:19;95423.66;;;8.75;100.00
19783;BME280;10051;40.294;-3.754;2024-01-30T01:46:45;95414.47;;;8.89;100.00
19783;BME280;10051;40.294;-3.754;2024-01-30T01:49:11;95342.84;;;8.43;100.00
19783;BME280;10051;40.294;-3.754;2024-01-30T01:51:37;95395.66;;;8.63;100.00
19783;BME280;10051;40.294;-3.754;2024-01-30T01:54:06;95397.13;;;8.71;100.00
19783;BME280;10051;40.294;-3.754;2024-01-30T01:56:33;95443.34;;;9.06;100.00
19783;BME280;10051;40.294;-3.754;2024-01-30T01:59:07;95399.97;;;8.70;100.00
19783;BME280;10051;40.294;-3.754;2024-01-30T02:01:34;95455.03;;;8.99;100.00
19783;BME280;10051;40.294;-3.754;2024-01-30T02:04:00;95412.69;;;8.78;100.00
19783;BME280;10051;40.294;-3.754;2024-01-30T02:06:26;95450.75;;;9.10;100.00
19783;BME280;10051;40.294;-3.754;2024-01-30T02:08:52;95445.03;;;8.96;100.00
19783;BME280;10051;40.294;-3.754;2024-01-30T02:11:19;95417.75;;;8.68;100.00
19783;BME280;10051;40.294;-3.754;2024-01-30T02:13:45;95439.28;;;8.82;100.00
19783;BME280;10051;40.294;-3.754;2024-01-30T02:16:10;95413.00;;;8.65;100.00
19783;BME280;10051;40.294;-3.754;2024-01-30T02:18:36;95393.34;;;8.50;100.00
19783;BME280;10051;40.294;-3.754;2024-01-30T02:21:07;95412.19;;;8.64;100.00
19783;BME280;10051;40.294;-3.754;2024-01-30T02:23:33;95388.31;;;8.48;100.00
19783;BME280;10051;40.294;-3.754;2024-01-30T02:25:59;95434.63;;;8.72;100.00
19783;BME280;10051;40.294;-3.754;2024-01-30T02:28:27;95404.88;;;8.49;100.00
19783;BME280;10051;40.294;-3.754;2024-01-30T02:30:55;95452.59;;;8.80;100.00
19783;BME280;10051;40.294;-3.754;2024-01-30T02:33:21;95396.06;;;8.43;100.00
19783;BME280;10051;40.294;-3.754;2024-01-30T02:35:48;95400.06;;;8.46;100.00
19783;BME280;10051;40.294;-3.754;2024-01-30T02:38:15;95425.72;;;8.73;100.00
19783;BME280;10051;40.294;-3.754;2024-01-30T02:40:43;95408.72;;;8.58;100.00
19783;BME280;10051;40.294;-3.754;2024-01-30T02:43:09;95423.34;;;8.71;100.00
19783;BME280;10051;40.294;-3.754;2024-01-30T02:45:34;95394.94;;;8.51;100.00
19783;BME280;10051;40.294;-3.754;2024-01-30T02:48:00;95405.19;;;8.53;100.00
19783;BME280;10051;40.294;-3.754;2024-01-30T02:50:25;95410.41;;;8.53;100.00
19783;BME280;10051;40.294;-3.754;2024-01-30T02:52:51;95398.81;;;8.48;100.00
19783;BME280;10051;40.294;-3.754;2024-01-30T02:55:17;95301.94;;;7.84;100.00
19783;BME280;10051;40.294;-3.754;2024-01-30T02:57:45;95334.56;;;8.05;100.00
19783;BME280;10051;40.294;-3.754;2024-01-30T03:00:11;95406.22;;;8.52;100.00
19783;BME280;10051;40.294;-3.754;2024-01-30T03:02:37;95401.06;;;8.57;100.00
19783;BME280;10051;40.294;-3.754;2024-01-30T03:05:04;95439.41;;;8.75;100.00
19783;BME280;10051;40.294;-3.754;2024-01-30T03:07:30;95357.56;;;8.15;100.00
19783;BME280;10051;40.294;-3.754;2024-01-30T03:09:55;95387.94;;;8.28;100.00
19783;BME280;10051;40.294;-3.754;2024-01-30T03:12:21;95390.78;;;8.26;100.00
19783;BME280;10051;40.294;-3.754;2024-01-30T03:14:47;95406.22;;;8.40;100.00
19783;BME280;10051;40.294;-3.754;2024-01-30T03:17:13;95422.69;;;8.64;100.00
19783;BME280;10051;40.294;-3.754;2024-01-30T03:19:39;95429.53;;;8.65;100.00
19783;BME280;10051;40.294;-3.754;2024-01-30T03:22:04;95407.03;;;8.52;100.00
19783;BME280;10051;40.294;-3.754;2024-01-30T03:24:30;95431.53;;;8.75;100.00
19783;BME280;10051;40.294;-3.754;2024-01-30T03:26:56;95436.47;;;8.71;100.00
19783;BME280;10051;40.294;-3.754;2024-01-30T03:29:21;95394.16;;;8.39;100.00
19783;BME280;10051;40.294;-3.754;2024-01-30T03:31:47;95427.63;;;8.60;100.00
19783;BME280;10051;40.294;-3.754;2024-01-30T03:34:12;95341.50;;;8.11;100.00
19783;BME280;10051;40.294;-3.754;2024-01-30T03:36:39;95398.00;;;8.48;100.00
19783;BME280;10051;40.294;-3.754;2024-01-30T03:39:07;95359.78;;;8.23;100.00
19783;BME280;10051;40.294;-3.754;2024-01-30T03:41:33;95371.59;;;8.38;100.00
19783;BME280;10051;40.294;-3.754;2024-01-30T03:43:59;95346.47;;;8.25;100.00
19783;BME280;10051;40.294;-3.754;2024-01-30T03:46:24;95427.31;;;8.74;100.00
19783;BME280;10051;40.294;-3.754;2024-01-30T03:48:50;95436.69;;;8.70;100.00
19783;BME280;10051;40.294;-3.754;2024-01-30T03:51:16;95377.75;;;8.31;100.00
19783;BME280;10051;40.294;-3.754;2024-01-30T03:53:42;95358.75;;;8.24;100.00
19783;BME280;10051;40.294;-3.754;2024-01-30T03:56:08;95413.69;;;8.60;100.00
19783;BME280;10051;40.294;-3.754;2024-01-30T03:58:37;95386.84;;;8.41;100.00
19783;BME280;10051;40.294;-3.754;2024-01-30T04:01:02;95425.53;;;8.62;100.00
19783;BME280;10051;40.294;-3.754;2024-01-30T04:03:28;95440.72;;;8.60;100.00
19783;BME280;10051;40.294;-3.754;2024-01-30T04:05:53;95352.03;;;7.99;100.00
19783;BME280;10051;40.294;-3.754;2024-01-30T04:08:19;95436.03;;;8.62;100.00
19783;BME280;10051;40.294;-3.754;2024-01-30T04:10:46;95440.44;;;8.74;100.00
19783;BME280;10051;40.294;-3.754;2024-01-30T04:13:12;95392.31;;;8.51;100.00
19783;BME280;10051;40.294;-3.754;2024-01-30T04:15:37;95408.38;;;8.55;100.00
19783;BME280;10051;40.294;-3.754;2024-01-30T04:18:03;95427.31;;;8.74;100.00
19783;BME280;10051;40.294;-3.754;2024-01-30T04:20:29;95441.00;;;8.76;100.00
19783;BME280;10051;40.294;-3.754;2024-01-30T04:22:55;95416.34;;;8.48;100.00
19783;BME280;10051;40.294;-3.754;2024-01-30T04:25:21;95430.94;;;8.56;100.00
19783;BME280;10051;40.294;-3.754;2024-01-30T04:27:47;95405.09;;;8.36;100.00
19783;BME280;10051;40.294;-3.754;2024-01-30T04:30:13;95396.56;;;8.28;100.00
19783;BME280;10051;40.294;-3.754;2024-01-30T04:32:39;95434.25;;;8.51;100.00
19783;BME280;10051;40.294;-3.754;2024-01-30T04:35:04;95444.97;;;8.50;100.00
19783;BME280;10051;40.294;-3.754;2024-01-30T04:37:30;95439.25;;;8.53;100.00
19783;BME280;10051;40.294;-3.754;2024-01-30T04:39:56;95409.41;;;8.42;100.00
19783;BME280;10051;40.294;-3.754;2024-01-30T04:42:21;95402.00;;;8.39;100.00
19783;BME280;10051;40.294;-3.754;2024-01-30T04:44:47;95402.53;;;8.24;100.00
19783;BME280;10051;40.294;-3.754;2024-01-30T04:47:13;95367.94;;;8.10;100.00
19783;BME280;10051;40.294;-3.754;2024-01-30T04:49:39;95457.09;;;8.68;100.00
19783;BME280;10051;40.294;-3.754;2024-01-30T04:52:05;95451.53;;;8.64;100.00
19783;BME280;10051;40.294;-3.754;2024-01-30T04:54:31;95454.44;;;8.51;100.00
19783;BME280;10051;40.294;-3.754;2024-01-30T04:56:57;95412.34;;;8.16;100.00
19783;BME280;10051;40.294;-3.754;2024-01-30T04:59:22;95359.13;;;7.75;100.00
19783;BME280;10051;40.294;-3.754;2024-01-30T05:01:48;95331.41;;;7.50;100.00
19783;BME280;10051;40.294;-3.754;2024-01-30T05:04:13;95353.94;;;7.63;100.00
19783;BME280;10051;40.294;-3.754;2024-01-30T05:06:39;95439.69;;;8.21;100.00
19783;BME280;10051;40.294;-3.754;2024-01-30T05:09:05;95442.16;;;8.27;100.00
19783;BME280;10051;40.294;-3.754;2024-01-30T05:11:30;95412.09;;;8.18;100.00
19783;BME280;10051;40.294;-3.754;2024-01-30T05:13:56;95392.25;;;8.22;100.00
19783;BME280;10051;40.294;-3.754;2024-01-30T05:16:22;95300.22;;;7.49;100.00
19783;BME280;10051;40.294;-3.754;2024-01-30T05:18:47;95339.25;;;7.62;100.00
19783;BME280;10051;40.294;-3.754;2024-01-30T05:21:13;95347.88;;;7.63;100.00
19783;BME280;10051;40.294;-3.754;2024-01-30T05:23:39;95445.22;;;8.24;100.00
19783;BME280;10051;40.294;-3.754;2024-01-30T05:26:07;95410.81;;;7.92;100.00
19783;BME280;10051;40.294;-3.754;2024-01-30T05:28:33;95442.69;;;8.00;100.00
19783;BME280;10051;40.294;-3.754;2024-01-30T05:30:59;95453.25;;;8.06;100.00
19783;BME280;10051;40.294;-3.754;2024-01-30T05:33:25;95370.88;;;7.49;100.00
19783;BME280;10051;40.294;-3.754;2024-01-30T05:35:50;95459.41;;;7.99;100.00
19783;BME280;10051;40.294;-3.754;2024-01-30T05:38:19;95455.66;;;7.95;100.00
19783;BME280;10051;40.294;-3.754;2024-01-30T05:40:45;95391.50;;;7.45;100.00
19783;BME280;10051;40.294;-3.754;2024-01-30T05:43:11;95428.34;;;7.55;100.00
19783;BME280;10051;40.294;-3.754;2024-01-30T05:45:36;95304.03;;;6.81;100.00
19783;BME280;10051;40.294;-3.754;2024-01-30T05:48:02;95448.97;;;7.87;100.00
19783;BME280;10051;40.294;-3.754;2024-01-30T05:50:28;95436.41;;;7.78;100.00
19783;BME280;10051;40.294;-3.754;2024-01-30T05:52:54;95427.81;;;7.65;100.00
19783;BME280;10051;40.294;-3.754;2024-01-30T05:55:19;95417.56;;;7.52;100.00
19783;BME280;10051;40.294;-3.754;2024-01-30T05:57:45;95464.78;;;7.93;100.00
19783;BME280;10051;40.294;-3.754;2024-01-30T06:00:11;95467.50;;;7.86;100.00
19783;BME280;10051;40.294;-3.754;2024-01-30T06:02:36;95475.25;;;7.93;100.00
19783;BME280;10051;40.294;-3.754;2024-01-30T06:05:02;95432.91;;;7.60;100.00
19783;BME280;10051;40.294;-3.754;2024-01-30T06:07:28;95429.84;;;7.75;100.00
19783;BME280;10051;40.294;-3.754;2024-01-30T06:09:55;95476.38;;;8.09;100.00
19783;BME280;10051;40.294;-3.754;2024-01-30T06:12:21;95465.00;;;8.15;100.00
19783;BME280;10051;40.294;-3.754;2024-01-30T06:14:47;95347.56;;;7.35;100.00
19783;BME280;10051;40.294;-3.754;2024-01-30T06:17:12;95478.63;;;8.17;100.00
19783;BME280;10051;40.294;-3.754;2024-01-30T06:19:39;95486.50;;;8.17;100.00
19783;BME280;10051;40.294;-3.754;2024-01-30T06:22:05;95486.41;;;8.12;100.00
19783;BME280;10051;40.294;-3.754;2024-01-30T06:24:30;95473.66;;;7.92;100.00
19783;BME280;10051;40.294;-3.754;2024-01-30T06:26:56;95461.38;;;7.68;100.00
19783;BME280;10051;40.294;-3.754;2024-01-30T06:29:22;95471.28;;;7.66;100.00
19783;BME280;10051;40.294;-3.754;2024-01-30T06:31:50;95478.78;;;7.63;100.00
19783;BME280;10051;40.294;-3.754;2024-01-30T06:34:16;95444.06;;;7.32;100.00
19783;BME280;10051;40.294;-3.754;2024-01-30T06:36:41;95478.78;;;7.51;100.00
19783;BME280;10051;40.294;-3.754;2024-01-30T06:39:07;95458.38;;;7.29;100.00
19783;BME280;10051;40.294;-3.754;2024-01-30T06:41:33;95466.91;;;7.36;100.00
19783;BME280;10051;40.294;-3.754;2024-01-30T06:43:58;95459.88;;;7.25;100.00
19783;BME280;10051;40.294;-3.754;2024-01-30T06:46:24;95484.31;;;7.31;100.00
19783;BME280;10051;40.294;-3.754;2024-01-30T06:48:49;95449.47;;;7.18;100.00
19783;BME280;10051;40.294;-3.754;2024-01-30T06:51:15;95485.03;;;7.50;100.00
19783;BME280;10051;40.294;-3.754;2024-01-30T06:53:41;95460.53;;;7.32;100.00
19783;BME280;10051;40.294;-3.754;2024-01-30T06:56:06;95498.69;;;7.52;100.00
19783;BME280;10051;40.294;-3.754;2024-01-30T06:58:32;95469.06;;;7.27;100.00
19783;BME280;10051;40.294;-3.754;2024-01-30T07:00:57;95502.13;;;7.64;100.00
19783;BME280;10051;40.294;-3.754;2024-01-30T07:03:23;95458.38;;;7.29;100.00
19783;BME280;10051;40.294;-3.754;2024-01-30T07:05:49;95498.56;;;7.47;100.00
19783;BME280;10051;40.294;-3.754;2024-01-30T07:08:16;95522.06;;;7.65;100.00
19783;BME280;10051;40.294;-3.754;2024-01-30T07:10:43;95428.66;;;7.11;100.00
19783;BME280;10051;40.294;-3.754;2024-01-30T07:13:09;95513.50;;;7.70;100.00
19783;BME280;10051;40.294;-3.754;2024-01-30T07:15:35;95434.72;;;7.24;100.00
19783;BME280;10051;40.294;-3.754;2024-01-30T07:18:02;95519.44;;;7.77;100.00
19783;BME280;10051;40.294;-3.754;2024-01-30T07:20:28;95446.88;;;7.30;100.00
19783;BME280;10051;40.294;-3.754;2024-01-30T07:22:56;95497.22;;;7.56;100.00
19783;BME280;10051;40.294;-3.754;2024-01-30T07:25:21;95488.09;;;7.47;100.00
19783;BME280;10051;40.294;-3.754;2024-01-30T07:27:52;95441.56;;;7.25;100.00
19783;BME280;10051;40.294;-3.754;2024-01-30T07:30:18;95520.66;;;7.74;100.00
19783;BME280;10051;40.294;-3.754;2024-01-30T07:32:44;95435.38;;;7.07;100.00
19783;BME280;10051;40.294;-3.754;2024-01-30T07:35:09;95490.16;;;7.44;100.00
19783;BME280;10051;40.294;-3.754;2024-01-30T07:37:35;95464.66;;;7.28;100.00
19783;BME280;10051;40.294;-3.754;2024-01-30T07:40:01;95514.50;;;7.45;100.00
19783;BME280;10051;40.294;-3.754;2024-01-30T07:42:27;95424.28;;;6.81;100.00
19783;BME280;10051;40.294;-3.754;2024-01-30T07:44:53;95483.81;;;7.10;100.00
19783;BME280;10051;40.294;-3.754;2024-01-30T07:47:18;95505.47;;;7.29;100.00
19783;BME280;10051;40.294;-3.754;2024-01-30T07:49:44;95484.44;;;7.24;100.00
19783;BME280;10051;40.294;-3.754;2024-01-30T07:52:10;95535.09;;;7.53;100.00
19783;BME280;10051;40.294;-3.754;2024-01-30T07:54:51;95528.97;;;7.48;100.00
19783;BME280;10051;40.294;-3.754;2024-01-30T07:57:17;95426.13;;;6.93;100.00
19783;BME280;10051;40.294;-3.754;2024-01-30T07:59:45;95522.69;;;7.49;100.00
19783;BME280;10051;40.294;-3.754;2024-01-30T08:02:14;95507.63;;;7.32;100.00
19783;BME280;10051;40.294;-3.754;2024-01-30T08:04:40;95508.59;;;7.50;100.00
19783;BME280;10051;40.294;-3.754;2024-01-30T08:07:05;95519.66;;;7.76;100.00
19783;BME280;10051;40.294;-3.754;2024-01-30T08:09:31;95548.47;;;8.11;100.00
19783;BME280;10051;40.294;-3.754;2024-01-30T08:11:56;95517.06;;;7.99;100.00
19783;BME280;10051;40.294;-3.754;2024-01-30T08:14:22;95545.41;;;8.38;100.00
19783;BME280;10051;40.294;-3.754;2024-01-30T08:16:48;95509.03;;;8.18;100.00
19783;BME280;10051;40.294;-3.754;2024-01-30T08:19:14;95537.63;;;8.31;100.00
19783;BME280;10051;40.294;-3.754;2024-01-30T08:21:40;95556.44;;;8.28;100.00
19783;BME280;10051;40.294;-3.754;2024-01-30T08:24:06;95499.50;;;7.88;100.00
19783;BME280;10051;40.294;-3.754;2024-01-30T08:26:32;95566.69;;;8.42;100.00
19783;BME280;10051;40.294;-3.754;2024-01-30T08:28:58;95563.81;;;8.43;100.00
19783;BME280;10051;40.294;-3.754;2024-01-30T08:31:23;95531.47;;;8.38;100.00
19783;BME280;10051;40.294;-3.754;2024-01-30T08:33:49;95569.69;;;8.57;100.00
19783;BME280;10051;40.294;-3.754;2024-01-30T08:36:16;95555.84;;;8.62;100.00
19783;BME280;10051;40.294;-3.754;2024-01-30T08:38:42;95533.53;;;8.59;100.00
19783;BME280;10051;40.294;-3.754;2024-01-30T08:41:07;95542.78;;;8.50;100.00
19783;BME280;10051;40.294;-3.754;2024-01-30T08:43:33;95573.47;;;8.90;100.00
19783;BME280;10051;40.294;-3.754;2024-01-30T08:45:59;95580.97;;;8.99;100.00
19783;BME280;10051;40.294;-3.754;2024-01-30T08:48:25;95540.88;;;8.86;100.00
19783;BME280;10051;40.294;-3.754;2024-01-30T08:50:51;95556.44;;;9.05;100.00
19783;BME280;10051;40.294;-3.754;2024-01-30T08:53:17;95516.88;;;8.95;100.00
19783;BME280;10051;40.294;-3.754;2024-01-30T08:55:42;95564.00;;;9.18;100.00
19783;BME280;10051;40.294;-3.754;2024-01-30T08:58:08;95591.56;;;9.33;100.00
19783;BME280;10051;40.294;-3.754;2024-01-30T09:00:33;95452.41;;;8.29;100.00
19783;BME280;10051;40.294;-3.754;2024-01-30T09:02:59;95525.72;;;8.76;100.00
19783;BME280;10051;40.294;-3.754;2024-01-30T09:05:24;95539.47;;;8.84;100.00
19783;BME280;10051;40.294;-3.754;2024-01-30T09:07:50;95592.03;;;9.30;100.00
19783;BME280;10051;40.294;-3.754;2024-01-30T09:10:16;95589.22;;;9.19;100.00
19783;BME280;10051;40.294;-3.754;2024-01-30T09:12:41;95558.25;;;9.04;100.00
19783;BME280;10051;40.294;-3.754;2024-01-30T09:15:07;95548.94;;;8.97;100.00
19783;BME280;10051;40.294;-3.754;2024-01-30T09:17:33;95566.94;;;9.05;100.00
19783;BME280;10051;40.294;-3.754;2024-01-30T09:19:58;95547.03;;;9.09;100.00
19783;BME280;10051;40.294;-3.754;2024-01-30T09:22:24;95553.88;;;9.39;100.00
19783;BME280;10051;40.294;-3.754;2024-01-30T09:24:50;95541.41;;;9.46;100.00
19783;BME280;10051;40.294;-3.754;2024-01-30T09:27:15;95534.38;;;9.35;100.00
19783;BME280;10051;40.294;-3.754;2024-01-30T09:29:41;95588.44;;;9.65;100.00
19783;BME280;10051;40.294;-3.754;2024-01-30T09:32:07;95574.66;;;9.75;100.00
19783;BME280;10051;40.294;-3.754;2024-01-30T09:34:34;95597.63;;;10.14;100.00
19783;BME280;10051;40.294;-3.754;2024-01-30T09:37:00;95593.38;;;10.30;100.00
19783;BME280;10051;40.294;-3.754;2024-01-30T09:39:26;95578.34;;;10.42;100.00
19783;BME280;10051;40.294;-3.754;2024-01-30T09:44:46;95619.72;;;10.69;100.00
19783;BME280;10051;40.294;-3.754;2024-01-30T09:47:13;95620.22;;;10.88;100.00
19783;BME280;10051;40.294;-3.754;2024-01-30T09:49:42;95621.88;;;10.94;100.00
19783;BME280;10051;40.294;-3.754;2024-01-30T09:52:09;95607.44;;;10.75;100.00
19783;BME280;10051;40.294;-3.754;2024-01-30T09:54:35;95625.00;;;10.91;100.00
19783;BME280;10051;40.294;-3.754;2024-01-30T09:57:01;95591.19;;;10.83;100.00
19783;BME280;10051;40.294;-3.754;2024-01-30T09:59:26;95607.69;;;10.95;100.00
19783;BME280;10051;40.294;-3.754;2024-01-30T10:01:52;95603.16;;;10.91;100.00
19783;BME280;10051;40.294;-3.754;2024-01-30T10:04:18;95609.81;;;10.98;100.00
19783;BME280;10051;40.294;-3.754;2024-01-30T10:06:43;95485.34;;;10.31;100.00
19783;BME280;10051;40.294;-3.754;2024-01-30T10:09:09;95585.22;;;11.10;100.00
19783;BME280;10051;40.294;-3.754;2024-01-30T10:11:36;95614.34;;;11.25;99.92
19783;BME280;10051;40.294;-3.754;2024-01-30T10:14:02;95564.22;;;11.15;100.00
19783;BME280;10051;40.294;-3.754;2024-01-30T10:16:28;95618.84;;;11.52;96.50
19783;BME280;10051;40.294;-3.754;2024-01-30T10:18:53;95630.00;;;11.37;96.18
19783;BME280;10051;40.294;-3.754;2024-01-30T10:21:19;95618.19;;;11.40;97.17
19783;BME280;10051;40.294;-3.754;2024-01-30T10:23:45;95629.75;;;11.39;96.10
19783;BME280;10051;40.294;-3.754;2024-01-30T10:26:10;95626.78;;;11.57;97.06
19783;BME280;10051;40.294;-3.754;2024-01-30T10:28:37;95638.31;;;11.79;95.61
19783;BME280;10051;40.294;-3.754;2024-01-30T10:31:03;95624.84;;;11.75;92.26
19783;BME280;10051;40.294;-3.754;2024-01-30T10:33:31;95638.81;;;11.75;92.96
19783;BME280;10051;40.294;-3.754;2024-01-30T10:36:00;95583.50;;;11.48;94.12
19783;BME280;10051;40.294;-3.754;2024-01-30T10:38:32;95633.59;;;11.81;92.99
19783;BME280;10051;40.294;-3.754;2024-01-30T10:40:59;95609.00;;;11.70;92.94
19783;BME280;10051;40.294;-3.754;2024-01-30T10:43:31;95612.25;;;11.82;90.12
19783;BME280;10051;40.294;-3.754;2024-01-30T10:46:33;95590.56;;;11.70;89.59
19783;BME280;10051;40.294;-3.754;2024-01-30T10:49:01;95634.19;;;11.88;89.60
19783;BME280;10051;40.294;-3.754;2024-01-30T10:51:27;95576.53;;;11.37;90.46
19783;BME280;10051;40.294;-3.754;2024-01-30T10:53:53;95562.63;;;11.41;89.55
19783;BME280;10051;40.294;-3.754;2024-01-30T10:56:21;95616.94;;;11.75;89.17
19783;BME280;10051;40.294;-3.754;2024-01-30T10:58:51;95645.69;;;12.04;89.85
19783;BME280;10051;40.294;-3.754;2024-01-30T11:01:22;95623.59;;;11.83;92.04
19783;BME280;10051;40.294;-3.754;2024-01-30T11:03:55;95542.44;;;11.52;90.44
19783;BME280;10051;40.294;-3.754;2024-01-30T11:06:25;95552.41;;;11.78;88.83
19783;BME280;10051;40.294;-3.754;2024-01-30T11:09:04;95567.50;;;11.87;87.16
19783;BME280;10051;40.294;-3.754;2024-01-30T11:11:51;95631.88;;;12.67;87.17
19783;BME280;10051;40.294;-3.754;2024-01-30T11:14:23;95576.44;;;12.57;84.87
19783;BME280;10051;40.294;-3.754;2024-01-30T11:16:50;95551.09;;;12.56;81.94
19783;BME280;10051;40.294;-3.754;2024-01-30T11:19:22;95576.97;;;12.64;82.47
19783;BME280;10051;40.294;-3.754;2024-01-30T11:21:50;95559.69;;;12.41;82.84
19783;BME280;10051;40.294;-3.754;2024-01-30T11:24:20;95520.63;;;12.38;83.73
19783;BME280;10051;40.294;-3.754;2024-01-30T11:26:49;95611.00;;;13.19;81.51
19783;BME280;10051;40.294;-3.754;2024-01-30T11:29:17;95575.97;;;12.75;81.51
19783;BME280;10051;40.294;-3.754;2024-01-30T11:31:55;95531.72;;;12.40;83.41
19783;BME280;10051;40.294;-3.754;2024-01-30T11:34:21;95547.97;;;12.74;84.36
19783;BME280;10051;40.294;-3.754;2024-01-30T11:37:01;95497.22;;;12.46;80.96
19783;BME280;10051;40.294;-3.754;2024-01-30T11:39:29;95551.53;;;13.06;80.96
19783;BME280;10051;40.294;-3.754;2024-01-30T11:41:55;95584.69;;;13.45;80.41
19783;BME280;10051;40.294;-3.754;2024-01-30T11:44:21;95524.88;;;13.13;80.21
19783;BME280;10051;40.294;-3.754;2024-01-30T11:46:51;95569.56;;;13.40;79.88
19783;BME280;10051;40.294;-3.754;2024-01-30T11:49:17;95580.97;;;13.51;80.34
19783;BME280;10051;40.294;-3.754;2024-01-30T11:51:43;95577.03;;;13.53;80.03
19783;BME280;10051;40.294;-3.754;2024-01-30T11:54:10;95546.06;;;13.38;79.57
19783;BME280;10051;40.294;-3.754;2024-01-30T11:56:37;95570.97;;;13.79;79.11
19783;BME280;10051;40.294;-3.754;2024-01-30T11:59:04;95560.38;;;14.00;79.17
19783;BME280;10051;40.294;-3.754;2024-01-30T12:01:30;95544.50;;;14.15;77.60
19783;BME280;10051;40.294;-3.754;2024-01-30T12:03:57;95579.38;;;14.43;76.86
19783;BME280;10051;40.294;-3.754;2024-01-30T12:06:23;95527.03;;;14.19;75.74
19783;BME280;10051;40.294;-3.754;2024-01-30T12:09:15;95531.72;;;14.53;75.19
19783;BME280;10051;40.294;-3.754;2024-01-30T12:11:46;95563.50;;;14.38;74.57
19783;BME280;10051;40.294;-3.754;2024-01-30T12:14:12;95510.69;;;13.86;75.41
19783;BME280;10051;40.294;-3.754;2024-01-30T12:16:38;95478.69;;;13.98;75.72
19783;BME280;10051;40.294;-3.754;2024-01-30T12:19:04;95557.63;;;14.62;74.16
19783;BME280;10051;40.294;-3.754;2024-01-30T12:21:29;95524.25;;;14.76;73.74
19783;BME280;10051;40.294;-3.754;2024-01-30T12:23:56;95536.44;;;14.67;71.87
19783;BME280;10051;40.294;-3.754;2024-01-30T12:26:23;95456.41;;;14.15;72.75
19783;BME280;10051;40.294;-3.754;2024-01-30T12:28:50;95549.84;;;14.96;72.91
19783;BME280;10051;40.294;-3.754;2024-01-30T12:31:25;95507.91;;;15.14;72.41
19783;BME280;10051;40.294;-3.754;2024-01-30T12:33:52;95472.94;;;15.12;72.22
19783;BME280;10051;40.294;-3.754;2024-01-30T12:36:18;95503.13;;;15.56;69.88
19783;BME280;10051;40.294;-3.754;2024-01-30T12:38:43;95498.94;;;15.50;69.56
19783;BME280;10051;40.294;-3.754;2024-01-30T12:41:10;95487.72;;;15.23;69.52
19783;BME280;10051;40.294;-3.754;2024-01-30T12:43:36;95481.94;;;15.11;70.47
19783;BME280;10051;40.294;-3.754;2024-01-30T12:46:02;95499.31;;;15.32;70.92
19783;BME280;10051;40.294;-3.754;2024-01-30T12:48:28;95463.03;;;15.28;70.24
19783;BME280;10051;40.294;-3.754;2024-01-30T12:50:56;95498.59;;;15.56;69.50